Worthington, Indiana
Current Conditions -  °F | °C
As of 12:53 AM on Friday 19 Dec 2014 (Local Time) from KBMG Reporting Station
Overcast Overcast  
Wind Chill: 27°   Ceiling: 5500
Heat Index: 27°   Visibility: 7mi
Dew Point: 24°   Wind: 0mph
Humidity: 89%   Direction: NA
Pressure: 30.26"   Gusts: NA
Location:  39.13°N, 86.98°W
Report Text: KBMG 190553Z AUTO 00000KT 7SM OVC055 M03/M04 A3026 RMK AO2 SLP255 T10281044 11017 21050 50004
Loading
Personal Weather Stations






























Interactive Weather Map New forecast layout! Learn more

10-Day Weather Forecast

Advertisements
Track Severe Weather on mobile